Time;durP1;ratioP1;P1;durP2;ratioP2;P2;SDS_P1;SDS_P2;PMS_P1;PMS_P2;Temp;Humidity;BMP_temperature;BMP_pressure;BME280_temperature;BME280_humidity;BME280_pressure;Samples;Min_cycle;Max_cycle;Signal;HPM_P1;HPM_P2
2020/12/31 00:02:09;;;;;;;1.20;1.10;;;3.40;98.00;;;;;;5048879;28;20466;-66
2020/12/31 00:04:36;;;;;;;1.10;0.90;;;3.50;98.00;;;;;;5051039;28;20454;-68
2020/12/31 00:07:03;;;;;;;1.10;0.90;;;3.50;98.00;;;;;;5049082;28;20458;-67
2020/12/31 00:09:30;;;;;;;1.20;1.03;;;3.40;98.00;;;;;;5054879;28;20462;-66
2020/12/31 00:11:57;;;;;;;1.10;0.90;;;3.30;98.00;;;;;;5052876;28;20462;-66
2020/12/31 00:14:24;;;;;;;1.20;1.17;;;3.20;98.00;;;;;;5053771;28;20461;-66
2020/12/31 00:16:51;;;;;;;1.20;0.90;;;3.20;98.00;;;;;;5052248;28;20501;-66
2020/12/31 00:19:17;;;;;;;1.10;0.90;;;3.20;98.00;;;;;;5054600;28;20464;-67
2020/12/31 00:21:44;;;;;;;1.67;1.47;;;3.20;98.00;;;;;;5051227;28;20520;-67
2020/12/31 00:24:11;;;;;;;1.10;0.90;;;3.20;98.00;;;;;;5054373;28;20512;-68
2020/12/31 00:26:37;;;;;;;1.20;0.90;;;3.30;98.00;;;;;;5052385;28;20458;-68
2020/12/31 00:29:04;;;;;;;1.13;1.00;;;3.30;98.00;;;;;;5053096;28;20462;-67
2020/12/31 00:31:31;;;;;;;1.20;1.00;;;3.30;98.00;;;;;;5052180;28;20465;-66
2020/12/31 00:33:58;;;;;;;1.20;1.00;;;3.40;98.00;;;;;;5054305;28;20869;-67
2020/12/31 00:36:25;;;;;;;1.20;1.00;;;3.40;98.00;;;;;;5052138;28;20457;-67
2020/12/31 00:38:52;;;;;;;1.40;1.20;;;3.40;98.00;;;;;;5054012;28;20456;-67
2020/12/31 00:41:19;;;;;;;1.20;1.10;;;3.30;98.00;;;;;;5052097;28;20458;-66
2020/12/31 00:43:46;;;;;;;1.10;1.00;;;3.50;98.00;;;;;;5053944;28;20490;-67
2020/12/31 00:46:13;;;;;;;1.20;1.10;;;3.50;98.00;;;;;;5051350;28;20982;-66
2020/12/31 00:48:40;;;;;;;1.10;0.90;;;3.50;98.00;;;;;;5053310;28;20453;-65
2020/12/31 00:51:07;;;;;;;1.20;0.90;;;3.50;98.00;;;;;;5049870;28;20869;-65
2020/12/31 00:53:36;;;;;;;1.20;1.07;;;3.60;98.00;;;;;;5054107;28;20466;-67
2020/12/31 00:56:04;;;;;;;1.10;0.90;;;3.60;98.00;;;;;;5051342;28;20462;-66
2020/12/31 00:58:33;;;;;;;1.10;0.90;;;3.60;98.00;;;;;;5053640;28;20493;-66
2020/12/31 01:01:00;;;;;;;2.17;1.23;;;3.50;98.00;;;;;;5051262;28;20465;-65
2020/12/31 01:03:27;;;;;;;2.90;1.87;;;3.40;98.00;;;;;;5053784;28;21172;-66
2020/12/31 01:05:54;;;;;;;1.20;1.00;;;3.20;98.00;;;;;;5051390;28;20473;-66
2020/12/31 01:08:21;;;;;;;1.20;1.00;;;3.10;98.00;;;;;;5053526;28;20453;-65
2020/12/31 01:10:48;;;;;;;1.20;0.97;;;3.10;98.00;;;;;;5050058;28;20515;-67
2020/12/31 01:13:14;;;;;;;1.20;0.90;;;3.10;98.00;;;;;;5053458;28;20454;-68
2020/12/31 01:15:41;;;;;;;1.30;1.30;;;3.00;98.00;;;;;;5051325;28;20462;-65
2020/12/31 01:18:09;;;;;;;1.30;1.10;;;3.00;98.00;;;;;;5052181;28;20468;-66
2020/12/31 01:20:38;;;;;;;1.10;0.90;;;3.00;98.00;;;;;;5016558;28;20949;-68
2020/12/31 01:23:06;;;;;;;1.20;1.00;;;3.00;98.00;;;;;;5053182;28;20984;-66
2020/12/31 01:25:33;;;;;;;1.30;1.17;;;2.90;98.00;;;;;;5051159;28;20457;-66
2020/12/31 01:28:01;;;;;;;1.20;0.93;;;2.80;98.00;;;;;;5052949;28;20518;-67
2020/12/31 01:30:28;;;;;;;1.50;1.43;;;2.70;98.00;;;;;;5050857;28;20466;-66
2020/12/31 01:32:55;;;;;;;1.10;1.00;;;2.70;98.00;;;;;;5051722;28;20452;-66
2020/12/31 01:35:21;;;;;;;3.33;1.50;;;2.60;98.00;;;;;;5049467;28;20458;-66
2020/12/31 01:37:50;;;;;;;1.10;0.93;;;2.70;98.00;;;;;;5053322;28;20812;-67
2020/12/31 01:40:18;;;;;;;1.10;0.90;;;2.70;98.00;;;;;;5051273;28;20800;-66
2020/12/31 01:42:46;;;;;;;1.13;1.00;;;2.60;98.00;;;;;;5053167;28;20481;-67
2020/12/31 01:45:12;;;;;;;1.30;1.10;;;2.40;98.00;;;;;;5050888;28;20630;-67
2020/12/31 01:47:40;;;;;;;1.10;1.00;;;2.50;98.00;;;;;;5052973;28;20450;-66
2020/12/31 01:50:07;;;;;;;1.17;1.00;;;2.60;98.00;;;;;;5050480;28;20487;-66
2020/12/31 01:52:35;;;;;;;1.60;1.50;;;2.80;98.00;;;;;;5052833;28;20496;-66
2020/12/31 01:55:03;;;;;;;1.30;1.20;;;2.70;98.00;;;;;;5051662;28;20458;-68
2020/12/31 01:57:30;;;;;;;1.10;1.10;;;2.70;98.00;;;;;;5052456;28;20906;-67
2020/12/31 01:59:57;;;;;;;1.40;1.20;;;2.70;98.00;;;;;;5052676;28;20458;-66
2020/12/31 02:02:24;;;;;;;1.60;1.20;;;2.70;98.00;;;;;;5050676;28;20830;-67
2020/12/31 02:04:53;;;;;;;1.20;1.10;;;2.90;98.00;;;;;;5052546;28;20963;-66
2020/12/31 02:07:20;;;;;;;1.10;0.93;;;2.70;98.00;;;;;;5049336;28;20852;-65
2020/12/31 02:09:48;;;;;;;1.40;1.00;;;2.70;98.00;;;;;;5052548;28;20951;-65
2020/12/31 02:12:15;;;;;;;1.73;1.20;;;2.70;98.00;;;;;;5050477;28;20465;-67
2020/12/31 02:14:49;;;;;;;1.40;1.10;;;2.80;98.00;;;;;;5052396;28;20461;-65
2020/12/31 02:17:16;;;;;;;1.50;1.10;;;2.80;98.00;;;;;;5050415;28;20526;-68
2020/12/31 02:19:43;;;;;;;1.20;1.10;;;2.60;98.00;;;;;;5052410;28;20461;-66
2020/12/31 02:22:12;;;;;;;1.10;0.90;;;2.70;98.00;;;;;;5050320;28;20461;-65
2020/12/31 02:24:39;;;;;;;1.10;1.00;;;2.70;98.00;;;;;;5052191;28;20846;-66
2020/12/31 02:27:06;;;;;;;1.20;1.00;;;2.90;98.00;;;;;;5050190;28;20460;-66
2020/12/31 02:29:32;;;;;;;1.10;0.90;;;2.80;98.00;;;;;;5052143;28;20489;-67
2020/12/31 02:32:00;;;;;;;1.10;0.90;;;2.70;98.00;;;;;;5050058;28;20472;-65
2020/12/31 02:34:26;;;;;;;1.30;1.30;;;2.60;98.00;;;;;;5051943;28;20480;-67
2020/12/31 02:36:53;;;;;;;1.10;1.00;;;2.60;98.00;;;;;;5050301;28;20484;-66
2020/12/31 02:39:21;;;;;;;1.50;1.07;;;2.50;98.00;;;;;;5051714;28;20457;-66
2020/12/31 02:41:47;;;;;;;1.10;0.90;;;2.50;98.00;;;;;;5049840;28;20454;-67
2020/12/31 02:44:15;;;;;;;1.20;1.00;;;2.50;98.00;;;;;;5051673;28;20492;-67
2020/12/31 02:46:42;;;;;;;1.20;1.00;;;2.60;98.00;;;;;;5049867;28;20886;-66
2020/12/31 02:49:08;;;;;;;1.10;0.90;;;2.60;98.00;;;;;;5051520;28;20536;-67
2020/12/31 02:51:35;;;;;;;1.67;1.10;;;2.60;98.00;;;;;;5049607;28;20881;-67
2020/12/31 02:54:02;;;;;;;2.67;1.53;;;2.50;98.00;;;;;;5051704;28;20476;-66
2020/12/31 02:56:30;;;;;;;1.10;1.00;;;2.50;98.00;;;;;;5048378;28;20458;-66
2020/12/31 02:58:56;;;;;;;1.20;0.90;;;2.40;98.00;;;;;;5051844;28;20860;-67
2020/12/31 03:01:24;;;;;;;1.20;1.13;;;2.30;98.00;;;;;;5048807;28;20438;-65
2020/12/31 03:03:52;;;;;;;1.20;1.00;;;2.20;98.00;;;;;;5051677;28;20646;-67
2020/12/31 03:06:18;;;;;;;3.10;1.10;;;2.20;98.00;;;;;;5049546;28;20530;-66
2020/12/31 03:08:45;;;;;;;1.20;1.00;;;2.20;98.00;;;;;;5051786;28;20457;-65
2020/12/31 03:11:16;;;;;;;2.13;1.40;;;2.10;98.00;;;;;;5048473;28;20465;-65
2020/12/31 03:13:43;;;;;;;1.10;0.90;;;2.20;98.00;;;;;;5051655;28;20449;-67
2020/12/31 03:16:10;;;;;;;2.27;1.40;;;2.20;98.00;;;;;;5048221;28;20461;-67
2020/12/31 03:18:37;;;;;;;1.10;0.90;;;2.30;98.00;;;;;;5051625;28;20795;-67
2020/12/31 03:21:03;;;;;;;1.20;1.00;;;2.30;98.00;;;;;;5049602;28;20458;-67
2020/12/31 03:23:30;;;;;;;1.10;0.90;;;2.20;98.00;;;;;;5051387;28;20836;-64
2020/12/31 03:25:56;;;;;;;1.20;0.90;;;2.20;98.00;;;;;;5049151;28;20462;-68
2020/12/31 03:28:23;;;;;;;1.67;1.17;;;2.10;98.00;;;;;;5051353;28;20829;-65
2020/12/31 03:30:50;;;;;;;1.30;1.20;;;2.10;98.00;;;;;;5049470;28;20469;-65
2020/12/31 03:33:18;;;;;;;1.20;1.00;;;2.10;98.00;;;;;;5051300;28;20464;-67
2020/12/31 03:35:46;;;;;;;1.10;1.00;;;2.00;98.00;;;;;;5049472;28;20469;-66
2020/12/31 03:38:14;;;;;;;1.10;0.90;;;2.10;98.00;;;;;;5051243;28;20486;-68
2020/12/31 03:40:40;;;;;;;1.10;0.90;;;2.30;98.00;;;;;;5049080;28;20457;-65
2020/12/31 03:43:07;;;;;;;4.23;1.30;;;2.40;98.00;;;;;;5053121;28;20489;-66
2020/12/31 03:45:34;;;;;;;1.50;1.30;;;2.30;98.00;;;;;;5053362;28;20489;-67
2020/12/31 03:48:02;;;;;;;1.20;1.10;;;2.20;98.00;;;;;;5053894;28;20469;-66
2020/12/31 03:50:29;;;;;;;1.20;1.00;;;2.10;98.00;;;;;;5053144;28;21089;-65
2020/12/31 03:52:56;;;;;;;1.10;1.00;;;2.10;98.00;;;;;;5055067;28;20450;-65
2020/12/31 03:55:22;;;;;;;1.10;0.90;;;2.00;98.00;;;;;;5052986;28;20487;-66
2020/12/31 03:57:49;;;;;;;1.20;1.00;;;2.00;98.00;;;;;;5054932;28;20462;-66
2020/12/31 04:00:16;;;;;;;1.10;1.00;;;2.00;98.00;;;;;;5053635;28;21078;-65
2020/12/31 04:02:42;;;;;;;1.67;1.30;;;1.90;98.00;;;;;;5054770;28;21225;-66
2020/12/31 04:05:10;;;;;;;1.40;1.30;;;2.00;98.00;;;;;;5054896;28;20471;-65
2020/12/31 04:07:36;;;;;;;1.60;1.57;;;2.00;98.00;;;;;;5053114;28;21022;-68
2020/12/31 04:10:04;;;;;;;2.80;1.50;;;2.10;98.00;;;;;;5054626;28;20503;-66
2020/12/31 04:12:31;;;;;;;1.10;0.90;;;2.20;98.00;;;;;;5053103;28;20468;-65
2020/12/31 04:14:58;;;;;;;1.20;1.00;;;2.10;98.00;;;;;;5036895;28;20454;-66
2020/12/31 04:17:25;;;;;;;1.10;0.90;;;2.00;98.00;;;;;;5052661;28;20465;-67
2020/12/31 04:19:52;;;;;;;1.10;0.90;;;1.80;98.00;;;;;;5054538;28;20464;-66
2020/12/31 04:22:20;;;;;;;1.10;0.90;;;1.60;98.00;;;;;;5052743;28;20467;-64
2020/12/31 04:24:47;;;;;;;1.10;0.90;;;1.40;98.00;;;;;;5054362;28;20489;-65
2020/12/31 04:27:13;;;;;;;1.20;1.00;;;1.40;98.00;;;;;;5051920;28;20856;-65
2020/12/31 04:29:40;;;;;;;1.13;0.90;;;1.20;98.00;;;;;;5054108;28;20448;-66
2020/12/31 04:32:06;;;;;;;1.30;1.10;;;1.10;98.00;;;;;;5052590;28;20467;-65
2020/12/31 04:34:33;;;;;;;1.20;1.07;;;1.10;98.00;;;;;;5054263;28;20539;-67
2020/12/31 04:36:59;;;;;;;1.20;0.90;;;1.30;98.00;;;;;;5052386;28;20464;-64
2020/12/31 04:39:27;;;;;;;1.50;1.10;;;1.20;98.00;;;;;;5054159;28;20460;-65
2020/12/31 04:41:57;;;;;;;1.20;1.10;;;1.20;98.00;;;;;;5052436;28;20475;-67
2020/12/31 04:44:26;;;;;;;1.20;0.90;;;1.00;98.00;;;;;;5054082;28;20496;-64
2020/12/31 04:46:57;;;;;;;2.43;2.00;;;1.00;98.00;;;;;;5052175;28;20509;-65
2020/12/31 04:49:28;;;;;;;1.20;1.00;;;1.10;98.00;;;;;;5053956;28;20457;-65
2020/12/31 04:51:55;;;;;;;1.10;0.90;;;1.10;98.00;;;;;;5052085;28;20483;-66
2020/12/31 04:54:22;;;;;;;1.13;0.90;;;1.30;98.00;;;;;;5052530;28;20467;-65
2020/12/31 04:56:49;;;;;;;1.20;0.90;;;1.40;98.00;;;;;;5051834;28;20472;-65
2020/12/31 04:59:16;;;;;;;1.20;1.10;;;1.30;98.00;;;;;;5054149;28;20460;-65
2020/12/31 05:01:45;;;;;;;1.30;1.00;;;1.10;98.00;;;;;;5052159;28;20472;-67
2020/12/31 05:04:12;;;;;;;1.50;1.20;;;1.10;98.00;;;;;;5052728;28;20489;-66
2020/12/31 05:06:40;;;;;;;1.93;1.57;;;1.20;98.00;;;;;;5051883;28;20453;-67
2020/12/31 05:09:14;;;;;;;1.20;1.00;;;1.20;98.00;;;;;;5053965;28;20530;-65
2020/12/31 05:11:45;;;;;;;1.17;0.90;;;1.10;98.00;;;;;;5051683;28;20911;-67
2020/12/31 05:14:13;;;;;;;1.30;1.20;;;1.10;98.00;;;;;;5053663;28;20902;-66
2020/12/31 05:16:39;;;;;;;1.10;0.90;;;1.10;98.00;;;;;;5051699;28;20457;-67
2020/12/31 05:19:22;;;;;;;1.13;1.03;;;1.00;98.00;;;;;;5053637;28;20461;-65
2020/12/31 05:21:50;;;;;;;1.60;1.40;;;1.00;98.00;;;;;;5051452;28;20456;-66
2020/12/31 05:24:16;;;;;;;1.10;1.00;;;1.00;98.00;;;;;;5053484;28;20539;-65
2020/12/31 05:26:43;;;;;;;4.60;2.80;;;1.00;98.00;;;;;;5051522;28;20496;-66
2020/12/31 05:29:10;;;;;;;1.10;0.90;;;1.20;98.00;;;;;;5052085;28;20463;-66
2020/12/31 05:32:01;;;;;;;1.13;1.00;;;1.30;98.00;;;;;;5051709;28;20456;-66
2020/12/31 05:34:29;;;;;;;1.10;1.00;;;1.30;98.00;;;;;;5042762;28;20461;-64
2020/12/31 05:36:55;;;;;;;1.20;1.00;;;1.40;98.00;;;;;;5051317;28;20468;-65
2020/12/31 05:39:22;;;;;;;1.10;1.00;;;1.40;98.00;;;;;;5053099;28;20628;-67
2020/12/31 05:41:49;;;;;;;1.10;1.00;;;1.40;98.00;;;;;;5049633;28;20499;-67
2020/12/31 05:44:15;;;;;;;1.10;1.00;;;1.30;98.00;;;;;;5052911;28;20500;-66
2020/12/31 05:46:42;;;;;;;1.20;1.00;;;1.30;98.00;;;;;;5050822;28;20497;-66
2020/12/31 05:49:10;;;;;;;1.30;1.20;;;1.30;98.00;;;;;;5052718;28;20513;-67
2020/12/31 05:51:41;;;;;;;1.50;1.40;;;1.20;98.00;;;;;;5050862;28;20460;-67
2020/12/31 05:54:09;;;;;;;1.20;1.07;;;1.30;98.00;;;;;;5052751;28;20522;-66
2020/12/31 05:56:36;;;;;;;1.60;1.43;;;1.10;98.00;;;;;;5050413;28;20494;-65
2020/12/31 05:59:08;;;;;;;1.10;0.90;;;1.00;98.00;;;;;;5052401;28;20463;-67
2020/12/31 06:01:38;;;;;;;1.10;0.97;;;1.00;98.00;;;;;;5050738;28;20467;-67
2020/12/31 06:04:19;;;;;;;3.47;1.50;;;1.00;98.00;;;;;;5052483;28;20484;-65
2020/12/31 06:06:50;;;;;;;1.20;0.90;;;0.90;98.00;;;;;;5050181;28;20963;-64
2020/12/31 06:09:28;;;;;;;1.30;1.20;;;0.90;98.00;;;;;;5052639;28;20486;-65
2020/12/31 06:11:58;;;;;;;1.30;1.20;;;0.90;98.00;;;;;;5050520;28;20456;-65
2020/12/31 06:14:28;;;;;;;1.10;1.00;;;0.70;98.00;;;;;;5052632;28;20453;-65
2020/12/31 06:16:58;;;;;;;1.40;1.17;;;0.60;98.00;;;;;;5049557;28;20453;-65
2020/12/31 06:19:33;;;;;;;1.20;0.90;;;0.50;98.00;;;;;;5051773;28;20460;-67
2020/12/31 06:22:05;;;;;;;1.50;1.20;;;0.40;98.00;;;;;;5049705;28;20462;-65
2020/12/31 06:24:36;;;;;;;1.20;1.10;;;0.60;98.00;;;;;;5052242;28;21231;-66
2020/12/31 06:27:09;;;;;;;1.10;0.90;;;0.60;98.00;;;;;;5049494;28;20451;-65
2020/12/31 06:29:47;;;;;;;1.20;0.90;;;0.40;98.00;;;;;;5052168;28;20467;-66
2020/12/31 06:32:22;;;;;;;1.10;0.90;;;0.40;98.00;;;;;;5049420;28;20464;-65
2020/12/31 06:34:50;;;;;;;1.17;1.07;;;0.50;98.00;;;;;;5052149;28;20460;-66
2020/12/31 06:37:17;;;;;;;1.20;0.90;;;0.50;98.00;;;;;;5049771;28;20503;-65
2020/12/31 06:39:43;;;;;;;1.20;1.00;;;0.60;98.00;;;;;;5051996;28;20476;-66
2020/12/31 06:42:10;;;;;;;1.20;1.10;;;0.70;98.00;;;;;;5049858;28;20480;-65
2020/12/31 06:44:36;;;;;;;1.77;1.30;;;0.70;98.00;;;;;;5051763;28;20507;-65
2020/12/31 06:47:03;;;;;;;1.20;0.90;;;0.80;98.00;;;;;;5049619;28;20471;-66
2020/12/31 06:49:53;;;;;;;1.20;1.13;;;0.70;98.00;;;;;;5051889;28;20471;-65
2020/12/31 06:52:21;;;;;;;1.20;1.00;;;0.80;98.00;;;;;;5049291;28;20456;-65
2020/12/31 06:54:48;;;;;;;1.30;1.20;;;0.60;98.00;;;;;;5051685;28;20467;-67
2020/12/31 06:57:36;;;;;;;1.17;1.00;;;0.40;98.00;;;;;;5048720;28;20474;-67
2020/12/31 07:00:04;;;;;;;1.20;0.90;;;0.50;98.00;;;;;;5051371;28;20479;-67
2020/12/31 07:02:44;;;;;;;1.83;1.73;;;0.40;98.00;;;;;;5048904;28;20529;-66
2020/12/31 07:05:21;;;;;;;2.40;1.50;;;0.40;98.00;;;;;;5049874;28;20471;-66
2020/12/31 07:07:48;;;;;;;1.20;1.00;;;0.40;98.00;;;;;;5049397;28;20821;-65
2020/12/31 07:10:15;;;;;;;1.20;1.00;;;0.40;98.00;;;;;;5051403;28;20467;-66
2020/12/31 07:12:45;;;;;;;1.20;0.90;;;0.20;98.00;;;;;;5049768;28;20459;-67
2020/12/31 07:15:14;;;;;;;1.20;1.10;;;0.20;98.00;;;;;;5050337;28;20818;-65
2020/12/31 07:17:47;;;;;;;2.27;1.17;;;0.20;98.00;;;;;;5048935;28;20923;-65
2020/12/31 07:20:15;;;;;;;1.20;1.00;;;0.30;98.00;;;;;;5051797;28;20464;-65
2020/12/31 07:22:43;;;;;;;1.30;1.20;;;0.30;98.00;;;;;;5049372;28;20876;-65
2020/12/31 07:25:12;;;;;;;2.40;2.23;;;0.30;98.00;;;;;;5051604;28;20467;-65
2020/12/31 07:27:40;;;;;;;1.30;1.10;;;0.40;98.00;;;;;;5049392;28;20482;-66
2020/12/31 07:30:15;;;;;;;1.50;1.20;;;0.40;98.00;;;;;;5051568;28;20467;-66
2020/12/31 07:33:00;;;;;;;1.20;1.10;;;0.50;98.00;;;;;;5049292;28;20488;-65
2020/12/31 07:35:32;;;;;;;1.20;1.00;;;0.60;98.00;;;;;;5051412;28;20456;-69
2020/12/31 07:38:01;;;;;;;1.20;0.97;;;0.50;98.00;;;;;;5049519;28;20464;-69
2020/12/31 07:40:29;;;;;;;1.20;0.90;;;0.60;98.00;;;;;;5051261;28;20463;-68
2020/12/31 07:42:57;;;;;;;1.30;1.10;;;0.50;98.00;;;;;;5049086;28;20459;-65
2020/12/31 07:45:24;;;;;;;1.63;1.33;;;0.30;98.00;;;;;;5051202;28;20456;-66
2020/12/31 07:47:51;;;;;;;1.20;1.00;;;0.20;98.00;;;;;;5049741;28;20468;-67
2020/12/31 07:50:18;;;;;;;1.20;1.00;;;0.40;98.00;;;;;;5051054;28;20463;-67
2020/12/31 07:52:45;;;;;;;1.33;1.20;;;0.20;98.00;;;;;;5049093;28;20220;-66
2020/12/31 07:55:12;;;;;;;1.20;1.10;;;0.10;98.00;;;;;;5051058;28;20467;-67
2020/12/31 07:57:42;;;;;;;1.20;1.00;;;0.10;98.00;;;;;;5049117;28;20459;-66
2020/12/31 08:00:12;;;;;;;2.55;1.98;;;0.00;98.00;;;;;;5050950;28;20462;-68
2020/12/31 08:02:45;;;;;;;1.20;1.00;;;0.00;98.00;;;;;;5049245;28;20200;-67
2020/12/31 08:05:12;;;;;;;2.07;1.20;;;0.10;98.00;;;;;;5050910;28;20209;-67
2020/12/31 08:07:42;;;;;;;1.30;1.30;;;0.30;98.00;;;;;;5049083;28;20945;-66
2020/12/31 08:10:09;;;;;;;1.20;1.00;;;0.40;98.00;;;;;;5050646;28;20608;-66
2020/12/31 08:12:39;;;;;;;1.40;1.30;;;0.60;98.00;;;;;;5048999;28;20640;-67
2020/12/31 08:15:07;;;;;;;2.90;2.13;;;0.80;98.00;;;;;;5050798;28;20455;-67
2020/12/31 08:17:34;;;;;;;1.10;1.10;;;0.80;98.00;;;;;;5048890;28;21003;-65
2020/12/31 08:20:03;;;;;;;2.80;1.40;;;0.90;98.00;;;;;;5048695;28;20873;-66
2020/12/31 08:22:33;;;;;;;1.30;1.20;;;1.00;98.00;;;;;;5048201;28;20459;-67
2020/12/31 08:25:06;;;;;;;1.20;1.20;;;1.00;98.00;;;;;;5049998;28;20484;-67
2020/12/31 08:27:38;;;;;;;1.20;0.90;;;1.10;98.00;;;;;;5048233;28;20522;-67
2020/12/31 08:30:07;;;;;;;1.10;1.00;;;1.00;98.00;;;;;;5051923;28;20516;-66
2020/12/31 08:32:52;;;;;;;1.00;1.00;;;1.20;98.00;;;;;;5051545;28;20473;-67
2020/12/31 08:35:21;;;;;;;1.00;0.90;;;3.40;98.00;;;;;;5053834;28;20944;-65
2020/12/31 08:37:48;;;;;;;1.10;0.90;;;5.20;98.00;;;;;;5051482;28;20456;-67
2020/12/31 08:40:24;;;;;;;1.53;1.13;;;6.20;98.00;;;;;;5053440;28;20466;-67
2020/12/31 08:42:55;;;;;;;1.30;1.17;;;6.30;98.00;;;;;;5051573;28;20818;-67
2020/12/31 08:45:29;;;;;;;1.53;1.20;;;5.90;98.00;;;;;;5052501;28;20458;-66
2020/12/31 08:48:16;;;;;;;3.40;2.13;;;5.30;98.00;;;;;;5051673;28;20461;-66
2020/12/31 08:50:58;;;;;;;1.20;1.00;;;4.50;98.00;;;;;;5052836;28;20476;-66
2020/12/31 08:53:25;;;;;;;1.20;1.10;;;4.20;98.00;;;;;;5053700;28;21045;-66
2020/12/31 08:55:51;;;;;;;1.60;1.37;;;3.60;98.00;;;;;;5051411;28;20450;-66
2020/12/31 08:58:19;;;;;;;1.40;1.13;;;3.40;98.00;;;;;;5053322;28;20957;-68
2020/12/31 09:00:45;;;;;;;1.60;1.10;;;3.10;98.00;;;;;;5051893;28;20481;-66
2020/12/31 09:03:19;;;;;;;1.30;1.20;;;2.90;98.00;;;;;;5053554;28;20482;-67
2020/12/31 09:05:56;;;;;;;1.60;1.30;;;2.80;98.00;;;;;;5052296;28;20580;-66
2020/12/31 09:08:23;;;;;;;1.53;1.33;;;2.60;98.00;;;;;;5053413;28;20820;-66
2020/12/31 09:10:59;;;;;;;1.80;1.53;;;2.50;98.00;;;;;;5051059;28;20454;-66
2020/12/31 09:13:27;;;;;;;2.13;1.23;;;2.20;98.00;;;;;;5053351;28;20453;-66
2020/12/31 09:16:12;;;;;;;2.23;1.47;;;2.30;98.00;;;;;;5051359;28;20773;-66
2020/12/31 09:18:39;;;;;;;1.20;0.90;;;2.30;98.00;;;;;;5051880;28;20599;-67
2020/12/31 09:21:06;;;;;;;1.23;1.07;;;2.50;98.00;;;;;;5050806;28;20489;-66
2020/12/31 09:23:33;;;;;;;1.80;1.30;;;2.50;98.00;;;;;;5053084;28;21037;-66
2020/12/31 09:26:00;;;;;;;1.37;1.17;;;2.50;98.00;;;;;;5051001;28;21005;-66
2020/12/31 09:28:28;;;;;;;1.30;1.20;;;2.60;98.00;;;;;;5053095;28;21273;-66
2020/12/31 09:30:55;;;;;;;1.20;1.10;;;2.50;98.00;;;;;;5050841;28;21014;-67
2020/12/31 09:33:24;;;;;;;1.20;1.10;;;2.50;98.00;;;;;;5052332;28;20492;-67
2020/12/31 09:35:51;;;;;;;1.50;1.33;;;2.60;98.00;;;;;;5050712;28;20457;-69
2020/12/31 09:38:18;;;;;;;1.37;1.20;;;2.70;98.00;;;;;;5052733;28;20523;-67
2020/12/31 09:40:45;;;;;;;2.70;1.90;;;2.70;98.00;;;;;;5051567;28;20468;-69
2020/12/31 09:43:12;;;;;;;4.30;1.70;;;2.60;98.00;;;;;;5050700;28;20528;-69
2020/12/31 09:45:40;;;;;;;1.17;1.00;;;2.60;98.00;;;;;;5052546;28;20982;-67
2020/12/31 09:48:07;;;;;;;1.20;1.10;;;2.50;98.00;;;;;;5049356;28;20476;-67
2020/12/31 09:50:33;;;;;;;1.20;1.03;;;2.50;98.00;;;;;;5052249;28;20461;-67
2020/12/31 09:53:01;;;;;;;1.83;1.37;;;2.60;98.00;;;;;;5050684;28;20449;-68
2020/12/31 09:55:28;;;;;;;1.20;1.10;;;2.70;98.00;;;;;;5052099;28;20465;-66
2020/12/31 09:57:54;;;;;;;1.20;1.00;;;2.80;98.00;;;;;;5050170;28;20461;-67
2020/12/31 10:00:24;;;;;;;1.40;1.23;;;2.80;98.00;;;;;;5051952;28;20536;-66
2020/12/31 10:02:54;;;;;;;3.93;1.77;;;2.80;98.00;;;;;;5050195;28;20454;-67
2020/12/31 10:05:21;;;;;;;1.20;1.00;;;2.90;98.00;;;;;;5052063;28;21117;-67
2020/12/31 10:07:47;;;;;;;1.20;1.00;;;2.90;98.00;;;;;;5049955;28;20468;-68
2020/12/31 10:10:14;;;;;;;1.40;1.30;;;2.90;98.00;;;;;;5050359;28;20469;-66
2020/12/31 10:12:40;;;;;;;1.20;1.20;;;2.90;98.00;;;;;;5050072;28;20507;-66
2020/12/31 10:15:07;;;;;;;1.10;0.93;;;2.90;98.00;;;;;;5051783;28;20457;-66
2020/12/31 10:17:34;;;;;;;1.40;1.10;;;2.90;98.00;;;;;;5049982;28;20520;-66
2020/12/31 10:20:01;;;;;;;1.20;1.10;;;2.90;98.00;;;;;;5050166;28;20464;-66
2020/12/31 10:22:28;;;;;;;1.10;1.00;;;2.90;98.00;;;;;;5049522;28;20489;-67
2020/12/31 10:24:55;;;;;;;1.10;1.00;;;3.00;98.00;;;;;;5050273;28;20497;-66
2020/12/31 10:27:25;;;;;;;1.20;0.90;;;3.00;98.00;;;;;;5049860;28;21030;-65
2020/12/31 10:29:53;;;;;;;1.83;1.40;;;3.00;98.00;;;;;;5051315;28;20468;-65
2020/12/31 10:32:20;;;;;;;1.13;1.00;;;3.00;98.00;;;;;;5049151;28;21010;-65
2020/12/31 10:34:47;;;;;;;1.10;1.00;;;3.10;98.00;;;;;;5051687;28;20458;-66
2020/12/31 10:37:14;;;;;;;2.70;1.33;;;3.10;98.00;;;;;;5049618;28;20462;-66
2020/12/31 10:39:41;;;;;;;1.33;1.30;;;3.20;98.00;;;;;;5051274;28;20462;-66
2020/12/31 10:42:08;;;;;;;1.20;1.20;;;3.20;98.00;;;;;;5049230;28;20458;-66
2020/12/31 10:44:35;;;;;;;1.80;1.33;;;3.20;98.00;;;;;;5051368;28;20521;-66
2020/12/31 10:47:02;;;;;;;1.10;1.00;;;3.30;98.00;;;;;;5048065;28;20449;-67
2020/12/31 10:49:29;;;;;;;1.10;0.90;;;3.30;98.00;;;;;;5051487;28;20453;-66
2020/12/31 10:51:55;;;;;;;1.50;1.20;;;3.40;98.00;;;;;;5047971;28;20449;-66
2020/12/31 10:54:23;;;;;;;1.30;1.30;;;3.40;98.00;;;;;;5050220;28;20465;-65
2020/12/31 10:56:49;;;;;;;1.87;1.33;;;3.60;98.00;;;;;;5049376;28;20465;-67
2020/12/31 10:59:16;;;;;;;1.30;1.20;;;3.70;98.00;;;;;;5051218;28;20966;-66
2020/12/31 11:01:43;;;;;;;8.70;2.03;;;3.70;98.00;;;;;;5048889;28;20464;-67
2020/12/31 11:04:09;;;;;;;2.27;1.47;;;3.70;98.00;;;;;;5051172;28;20485;-68
2020/12/31 11:06:36;;;;;;;1.10;1.00;;;3.70;98.00;;;;;;5049304;28;20476;-66
2020/12/31 11:09:04;;;;;;;1.47;1.40;;;3.80;98.00;;;;;;5050926;28;20462;-67
2020/12/31 11:11:33;;;;;;;1.97;1.57;;;3.80;98.00;;;;;;5048625;28;21021;-67
2020/12/31 11:14:00;;;;;;;2.07;1.93;;;3.90;98.00;;;;;;5049887;28;20882;-67
2020/12/31 11:16:27;;;;;;;1.20;1.10;;;4.00;98.00;;;;;;5048850;28;20484;-66
2020/12/31 11:18:53;;;;;;;1.10;0.90;;;4.10;98.00;;;;;;5051068;28;20457;-66
2020/12/31 11:21:21;;;;;;;1.90;1.50;;;4.20;98.00;;;;;;5048882;28;20927;-68
2020/12/31 11:23:47;;;;;;;2.03;1.60;;;4.30;98.00;;;;;;5050911;28;20486;-66
2020/12/31 11:26:15;;;;;;;1.20;0.90;;;4.20;98.00;;;;;;5049005;28;20932;-66
2020/12/31 11:28:43;;;;;;;1.30;1.27;;;4.30;98.00;;;;;;5050724;28;20461;-66
2020/12/31 11:31:12;;;;;;;2.77;1.80;;;4.20;98.00;;;;;;5048686;28;21045;-66
2020/12/31 11:33:38;;;;;;;2.20;1.60;;;4.20;98.00;;;;;;5050752;28;20453;-68
2020/12/31 11:36:05;;;;;;;1.13;0.90;;;4.20;98.00;;;;;;5048871;28;20462;-66
2020/12/31 11:38:32;;;;;;;1.10;1.00;;;4.20;98.00;;;;;;5050824;28;20458;-67
2020/12/31 11:40:59;;;;;;;1.40;1.03;;;4.20;98.00;;;;;;5049813;28;20527;-67
2020/12/31 11:43:25;;;;;;;1.17;0.93;;;4.30;98.00;;;;;;5049110;28;20543;-67
2020/12/31 11:45:53;;;;;;;1.30;1.17;;;4.30;98.00;;;;;;5050607;28;20457;-67
2020/12/31 11:48:21;;;;;;;1.20;1.10;;;4.20;98.00;;;;;;5048611;28;20458;-67
2020/12/31 11:50:51;;;;;;;1.20;1.10;;;4.20;98.00;;;;;;5050024;28;20829;-66
2020/12/31 11:53:19;;;;;;;1.20;1.00;;;4.30;98.00;;;;;;5048613;28;20944;-67
2020/12/31 11:55:46;;;;;;;1.20;1.00;;;4.40;98.00;;;;;;5050509;28;20472;-67
2020/12/31 11:58:13;;;;;;;1.20;0.90;;;4.40;98.00;;;;;;5047925;28;20853;-67
2020/12/31 12:00:41;;;;;;;1.20;1.00;;;4.30;98.00;;;;;;5049440;28;21187;-67
2020/12/31 12:03:09;;;;;;;4.30;1.60;;;4.30;98.00;;;;;;5048385;28;20520;-67
2020/12/31 12:05:41;;;;;;;1.20;1.00;;;4.30;98.00;;;;;;5054199;28;20453;-67
2020/12/31 12:08:08;;;;;;;1.10;1.00;;;4.30;98.00;;;;;;5052510;28;20464;-66
2020/12/31 12:10:35;;;;;;;1.20;1.10;;;4.40;98.00;;;;;;5052862;28;20462;-68
2020/12/31 12:13:02;;;;;;;1.20;1.10;;;4.40;98.00;;;;;;5052128;28;20932;-67
2020/12/31 12:15:28;;;;;;;1.10;0.90;;;4.50;98.00;;;;;;5054372;28;20454;-66
2020/12/31 12:17:59;;;;;;;1.10;0.90;;;4.40;98.00;;;;;;5051592;28;20511;-67
2020/12/31 12:20:26;;;;;;;1.40;1.40;;;4.40;98.00;;;;;;5053816;28;20444;-67
2020/12/31 12:22:53;;;;;;;1.20;1.10;;;4.30;98.00;;;;;;5051597;28;20469;-67
2020/12/31 12:25:20;;;;;;;1.10;0.90;;;4.30;98.00;;;;;;5053909;28;20976;-68
2020/12/31 12:27:46;;;;;;;1.40;1.40;;;4.20;98.00;;;;;;5052045;28;20460;-67
2020/12/31 12:30:14;;;;;;;2.03;1.50;;;4.30;98.00;;;;;;5053813;28;20619;-66
2020/12/31 12:32:41;;;;;;;1.10;0.90;;;4.20;98.00;;;;;;5051389;28;20496;-67
2020/12/31 12:35:09;;;;;;;1.20;0.90;;;4.20;98.00;;;;;;5053770;28;20546;-67
2020/12/31 12:37:36;;;;;;;1.13;1.00;;;4.20;98.00;;;;;;5052129;28;20461;-68
2020/12/31 12:40:06;;;;;;;1.10;0.93;;;4.30;98.00;;;;;;5052270;28;20541;-66
2020/12/31 12:42:34;;;;;;;1.40;1.13;;;4.30;98.00;;;;;;5050858;28;20461;-66
2020/12/31 12:45:03;;;;;;;1.17;0.93;;;4.30;98.00;;;;;;5053411;28;20489;-67
2020/12/31 12:47:29;;;;;;;1.10;1.00;;;4.30;98.00;;;;;;5051179;28;20814;-67
2020/12/31 12:49:55;;;;;;;1.17;1.00;;;4.30;98.00;;;;;;5053369;28;20462;-66
2020/12/31 12:52:22;;;;;;;4.70;1.63;;;4.40;98.00;;;;;;5051258;28;20463;-66
2020/12/31 12:54:49;;;;;;;1.20;0.90;;;4.60;98.00;;;;;;5053874;28;20454;-67
2020/12/31 12:57:16;;;;;;;1.40;1.27;;;4.60;98.00;;;;;;5051547;28;20497;-66
2020/12/31 12:59:42;;;;;;;1.20;0.97;;;4.80;98.00;;;;;;5053598;28;20827;-67
2020/12/31 13:02:09;;;;;;;1.20;1.20;;;4.70;98.00;;;;;;5051361;28;20459;-66
2020/12/31 13:04:35;;;;;;;1.30;1.30;;;4.60;98.00;;;;;;5053580;28;20482;-68